| time (UTC) | temp F | wind direction | speed MPH | gust MPH | rain 1hr in | rain 24hr in | rain mn in | humidity % | barometer mb |
| 20260507090057 | 56 | 55 | 2.0 | 6.0 | 0.00 | 0.21 | 0.07 | 68 | 1012.1 |
| 20260507084604 | 54 | 203 | 2.0 | 5.0 | 0.00 | 0.21 | 0.07 | 68 | 1012.1 |
| 20260507083049 | 53 | 148 | 2.0 | 4.0 | 0.00 | 0.21 | 0.07 | 76 | 1012.1 |
| 20260507081552 | 50 | 308 | 1.0 | 3.0 | 0.01 | 0.21 | 0.07 | 83 | 1012.1 |
| 20260507080044 | 49 | 311 | 0.0 | 3.0 | 0.02 | 0.21 | 0.07 | 91 | 1012.0 |
| 20260507074538 | 47 | 82 | 1.0 | 4.0 | 0.05 | 0.21 | 0.07 | 91 | 1012.1 |
| 20260507073034 | 46 | 226 | 2.0 | 6.0 | 0.05 | 0.21 | 0.07 | 91 | 1011.9 |
| 20260507071531 | 47 | 280 | 0.0 | 6.0 | 0.04 | 0.20 | 0.06 | 93 | 1011.9 |
| 20260507070030 | 47 | 88 | 4.0 | 6.0 | 0.02 | 0.19 | 0.05 | 94 | 1011.7 |
| 20260507064527 | 46 | 78 | 0.0 | 0.0 | 0.00 | 0.17 | 0.02 | 94 | 1011.6 |
| 20260507063027 | 46 | 78 | 0.0 | 2.0 | 0.00 | 0.17 | 0.02 | 94 | 1011.4 |
| 20260507061521 | 46 | 31 | 0.0 | 3.0 | 0.00 | 0.17 | 0.02 | 94 | 1011.5 |
| 20260507060024 | 46 | 261 | 0.0 | 0.0 | 0.01 | 0.17 | 0.02 | 94 | 1011.4 |
| 20260507054516 | 45 | 302 | 0.0 | 2.0 | 0.01 | 0.17 | 0.02 | 94 | 1011.3 |
| 20260507053014 | 45 | 322 | 0.0 | 0.0 | 0.01 | 0.17 | 0.02 | 94 | 1011.2 |
| 20260507051511 | 45 | 223 | 0.0 | 0.0 | 0.01 | 0.17 | 0.02 | 94 | 1011.1 |
| 20260507050014 | 45 | 209 | 0.0 | 3.0 | 0.00 | 0.16 | 0.02 | 94 | 1011.1 |
| 20260507044509 | 44 | 226 | 0.0 | 0.0 | 0.00 | 0.16 | 0.02 | 94 | 1010.9 |
| 20260507043012 | 44 | 311 | 0.0 | 0.0 | 0.00 | 0.16 | 0.02 | 94 | 1010.8 |
| 20260507041502 | 44 | 310 | 0.0 | 2.0 | 0.00 | 0.16 | 0.02 | 94 | 1010.5 |
| 20260507040001 | 44 | 310 | 0.0 | 2.0 | 0.00 | 0.16 | 0.02 | 94 | 1010.5 |
| 20260507034600 | 44 | 51 | 0.0 | 0.0 | 0.00 | 0.16 | 0.02 | 94 | 1010.4 |
| 20260507033100 | 44 | 82 | 0.0 | 2.0 | 0.00 | 0.16 | 0.02 | 94 | 1010.4 |
| 20260507031559 | 44 | 144 | 0.0 | 1.0 | 0.00 | 0.16 | 0.02 | 94 | 1010.3 |
| 20260507030100 | 44 | 59 | 0.0 | 1.0 | 0.00 | 0.16 | 0.02 | 94 | 1010.3 |
| 20260507024558 | 44 | 33 | 0.0 | 3.0 | 0.00 | 0.16 | 0.02 | 93 | 1010.1 |
| 20260507023109 | 44 | 34 | 2.0 | 4.0 | 0.00 | 0.16 | 0.02 | 93 | 1010.2 |
| 20260507021555 | 44 | 355 | 2.0 | 4.0 | 0.00 | 0.16 | 0.02 | 93 | 1010.3 |
| 20260507020059 | 45 | 69 | 1.0 | 4.0 | 0.00 | 0.16 | 0.02 | 94 | 1010.3 |
| 20260507014557 | 45 | 113 | 0.0 | 3.0 | 0.00 | 0.16 | 0.02 | 94 | 1010.1 |
| 20260507013054 | 45 | 98 | 0.0 | 3.0 | 0.00 | 0.16 | 0.02 | 93 | 1010.0 |
| 20260507011553 | 45 | 82 | 0.0 | 2.0 | 0.00 | 0.16 | 0.02 | 93 | 1010.0 |
| 20260507010052 | 45 | 333 | 0.0 | 2.0 | 0.01 | 0.16 | 0.02 | 93 | 1010.2 |
| 20260507004551 | 45 | 180 | 0.0 | 2.0 | 0.01 | 0.16 | 0.02 | 93 | 1010.2 |
| 20260507003106 | 45 | 128 | 0.0 | 0.0 | 0.01 | 0.16 | 0.02 | 93 | 1009.9 |
| 20260507001611 | 45 | 128 | 0.0 | 2.0 | 0.01 | 0.16 | 0.02 | 93 | 1010.2 |
| 20260507000050 | 45 | 153 | 0.0 | 2.0 | 0.00 | 0.15 | 0.01 | 93 | 1010.1 |
| 20260506234554 | 45 | 207 | 0.0 | 2.0 | 0.01 | 0.15 | 0.01 | 92 | 1010.0 |
| 20260506233050 | 45 | 337 | 0.0 | 3.0 | 0.01 | 0.15 | 0.01 | 92 | 1009.9 |
| 20260506231549 | 45 | 344 | 1.0 | 3.0 | 0.01 | 0.15 | 0.01 | 92 | 1009.7 |
| 20260506230053 | 45 | 49 | 1.0 | 6.0 | 0.01 | 0.15 | 0.01 | 92 | 1009.5 |
| 20260506224544 | 46 | 24 | 1.0 | 4.0 | 0.01 | 0.14 | 0.00 | 92 | 1009.4 |
| 20260506223042 | 45 | 12 | 2.0 | 4.0 | 0.01 | 0.14 | 0.00 | 92 | 1009.3 |
| 20260506221549 | 46 | 90 | 0.0 | 0.0 | 0.01 | 0.14 | 0.00 | 92 | 1009.5 |
| 20260506220038 | 46 | 134 | 0.0 | 0.0 | 0.01 | 0.14 | 0.00 | 92 | 1009.7 |
| 20260506214537 | 46 | 136 | 2.0 | 3.0 | 0.00 | 0.13 | 0.13 | 91 | 1009.6 |
| 20260506213036 | 46 | 329 | 0.0 | 3.0 | 0.00 | 0.13 | 0.13 | 91 | 1009.4 |
| 20260506211533 | 46 | 319 | 2.0 | 5.0 | 0.00 | 0.13 | 0.13 | 91 | 1009.2 |
| 20260506210047 | 46 | 35 | 3.0 | 8.0 | 0.01 | 0.13 | 0.13 | 91 | 1009.0 |
| 20260506204532 | 46 | 48 | 3.0 | 11.0 | 0.03 | 0.13 | 0.13 | 90 | 1008.8 |
| 20260506203035 | 46 | 25 | 3.0 | 8.0 | 0.09 | 0.13 | 0.13 | 90 | 1008.7 |
| 20260506201530 | 47 | 35 | 3.0 | 7.0 | 0.11 | 0.13 | 0.13 | 90 | 1008.6 |
| 20260506200032 | 47 | 28 | 1.0 | 6.0 | 0.10 | 0.13 | 0.13 | 89 | 1008.8 |
| 20260506194529 | 47 | 76 | 0.0 | 2.0 | 0.07 | 0.09 | 0.09 | 88 | 1008.8 |
| 20260506193034 | 47 | 345 | 2.0 | 5.0 | 0.02 | 0.04 | 0.04 | 87 | 1008.4 |
| 20260506191525 | 47 | 23 | 5.0 | 9.0 | 0.01 | 0.02 | 0.02 | 87 | 1007.9 |
| 20260506190029 | 48 | 44 | 6.0 | 10.0 | 0.02 | 0.02 | 0.02 | 87 | 1007.7 |
| 20260506184534 | 48 | 51 | 4.0 | 8.0 | 0.02 | 0.02 | 0.02 | 85 | 1007.3 |
| 20260506183023 | 49 | 355 | 3.0 | 10.0 | 0.02 | 0.02 | 0.02 | 83 | 1007.1 |
| 20260506181535 | 50 | 15 | 7.0 | 13.0 | 0.02 | 0.02 | 0.02 | 79 | 1006.7 |
| 20260506180122 | 51 | 23 | 8.0 | 16.0 | 0.01 | 0.01 | 0.01 | 76 | 1006.3 |
| 20260506174522 | 52 | 36 | 4.0 | 15.0 | 0.00 | 0.00 | 0.00 | 75 | 1006.1 |
| 20260506173022 | 53 | 72 | 6.0 | 12.0 | 0.00 | 0.00 | 0.00 | 72 | 1005.3 |
| 20260506171521 | 55 | 55 | 10.0 | 17.0 | 0.00 | 0.00 | 0.00 | 69 | 1005.2 |
| 20260506170121 | 57 | 51 | 10.0 | 16.0 | 0.00 | 0.00 | 0.00 | 65 | 1004.7 |
| 20260506164538 | 57 | 23 | 5.0 | 13.0 | 0.00 | 0.00 | 0.00 | 63 | 1004.4 |
| 20260506163019 | 58 | 36 | 4.0 | 10.0 | 0.00 | 0.00 | 0.00 | 62 | 1004.3 |
| 20260506161521 | 59 | 38 | 3.0 | 10.0 | 0.00 | 0.00 | 0.00 | 62 | 1004.1 |
| 20260506160004 | 59 | 36 | 2.0 | 9.0 | 0.00 | 0.00 | 0.00 | 62 | 1004.0 |
| 20260506154504 | 59 | 70 | 1.0 | 5.0 | 0.00 | 0.00 | 0.00 | 65 | 1004.0 |
| 20260506153004 | 58 | 28 | 0.0 | 4.0 | 0.00 | 0.00 | 0.00 | 66 | 1003.6 |
| 20260506151502 | 58 | 310 | 1.0 | 6.0 | 0.00 | 0.00 | 0.00 | 67 | 1003.6 |
| 20260506150003 | 58 | 286 | 1.0 | 4.0 | 0.00 | 0.00 | 0.00 | 65 | 1003.5 |
| 20260506144501 | 58 | 174 | 4.0 | 8.0 | 0.00 | 0.00 | 0.00 | 69 | 1003.7 |
| 20260506143001 | 58 | 144 | 5.0 | 13.0 | 0.00 | 0.00 | 0.00 | 69 | 1004.0 |
| 20260506141500 | 57 | 184 | 6.0 | 15.0 | 0.00 | 0.00 | 0.00 | 70 | 1003.8 |
| 20260506140101 | 58 | 257 | 8.0 | 18.0 | 0.00 | 0.00 | 0.00 | 70 | 1003.8 |
| 20260506134600 | 60 | 238 | 8.0 | 23.0 | 0.00 | 0.00 | 0.00 | 67 | 1003.2 |
| 20260506133115 | 63 | 232 | 2.0 | 6.0 | 0.00 | 0.00 | 0.00 | 62 | 1002.8 |
| 20260506131616 | 63 | 9 | 5.0 | 8.0 | 0.00 | 0.00 | 0.00 | 63 | 1002.2 |
| 20260506130059 | 63 | 30 | 3.0 | 8.0 | 0.00 | 0.00 | 0.00 | 63 | 1002.2 |
| 20260506124558 | 63 | 47 | 4.0 | 11.0 | 0.00 | 0.00 | 0.00 | 63 | 1002.3 |
| 20260506123057 | 63 | 42 | 7.0 | 14.0 | 0.00 | 0.00 | 0.00 | 61 | 1002.4 |
| 20260506121559 | 63 | 53 | 7.0 | 14.0 | 0.00 | 0.00 | 0.00 | 60 | 1002.4 |
| 20260506120104 | 65 | 24 | 8.0 | 14.0 | 0.00 | 0.00 | 0.00 | 58 | 1002.4 |
| 20260506114554 | 65 | 20 | 7.0 | 12.0 | 0.00 | 0.00 | 0.00 | 61 | 1002.4 |
| 20260506113052 | 64 | 9 | 9.0 | 13.0 | 0.00 | 0.00 | 0.00 | 59 | 1002.4 |
| 20260506111549 | 63 | 342 | 7.0 | 13.0 | 0.00 | 0.00 | 0.00 | 58 | 1002.9 |
| 20260506110057 | 64 | 343 | 8.0 | 14.0 | 0.00 | 0.00 | 0.00 | 59 | 1003.2 |
| 20260506104556 | 62 | 41 | 7.0 | 14.0 | 0.00 | 0.00 | 0.00 | 59 | 1003.3 |
| 20260506103045 | 60 | 28 | 7.0 | 12.0 | 0.00 | 0.00 | 0.00 | 60 | 1003.5 |
| 20260506101536 | 59 | 340 | 4.0 | 8.0 | 0.00 | 0.00 | 0.00 | 62 | 1003.6 |
| 20260506100033 | 58 | 31 | 6.0 | 11.0 | 0.00 | 0.00 | 0.00 | 63 | 1003.8 |
| 20260506094532 | 58 | 346 | 4.0 | 11.0 | 0.00 | 0.00 | 0.00 | 66 | 1003.8 |
| 20260506093028 | 57 | 9 | 6.0 | 9.0 | 0.00 | 0.00 | 0.00 | 66 | 1003.9 |
| 20260506091523 | 57 | 36 | 6.0 | 11.0 | 0.00 | 0.00 | 0.00 | 65 | 1004.0 |